createdAt,value
2023-02-11T00:01:29.785Z,16.00
2023-02-11T00:03:58.760Z,16.73
2023-02-11T00:06:29.747Z,16.37
2023-02-11T00:08:59.275Z,16.27
2023-02-11T00:11:30.350Z,16.27
2023-02-11T00:13:59.178Z,15.77
2023-02-11T00:16:29.527Z,16.53
2023-02-11T00:18:58.285Z,15.80
2023-02-11T00:21:28.077Z,16.67
2023-02-11T00:23:59.600Z,15.77
2023-02-11T00:26:31.718Z,15.83
2023-02-11T00:29:00.825Z,16.70
2023-02-11T00:31:31.017Z,16.60
2023-02-11T00:33:59.219Z,16.77
2023-02-11T00:36:30.271Z,17.43
2023-02-11T00:38:59.858Z,16.10
2023-02-11T00:41:28.157Z,16.63
2023-02-11T00:43:56.367Z,16.77
2023-02-11T00:46:24.974Z,16.77
2023-02-11T00:48:57.638Z,17.03
2023-02-11T00:51:26.421Z,17.13
2023-02-11T00:53:54.686Z,16.60
2023-02-11T00:56:23.105Z,15.70
2023-02-11T00:58:51.235Z,17.87
2023-02-11T01:01:19.447Z,17.03
2023-02-11T01:03:48.084Z,17.83
2023-02-11T01:06:17.835Z,17.47
2023-02-11T01:08:46.129Z,17.97
2023-02-11T01:11:17.931Z,16.80
2023-02-11T01:13:47.412Z,17.27
2023-02-11T01:16:16.288Z,15.87
2023-02-11T01:18:44.824Z,18.03
2023-02-11T01:21:13.446Z,17.30
2023-02-11T01:23:42.954Z,17.37
2023-02-11T01:26:11.062Z,17.30
2023-02-11T01:28:40.013Z,17.17
2023-02-11T01:31:08.502Z,17.20
2023-02-11T01:33:36.703Z,16.83
2023-02-11T01:36:07.416Z,18.13
2023-02-11T01:38:36.947Z,17.47
2023-02-11T01:41:10.483Z,17.47
2023-02-11T01:43:43.948Z,17.37
2023-02-11T01:46:35.880Z,17.20
2023-02-11T01:49:10.524Z,18.37
2023-02-11T01:51:44.951Z,18.00
2023-02-11T01:54:38.293Z,17.57
2023-02-11T01:57:24.952Z,16.60
2023-02-11T02:00:11.817Z,17.10
2023-02-11T02:02:51.433Z,16.83
2023-02-11T02:05:33.253Z,17.00
2023-02-11T02:08:10.831Z,17.43
2023-02-11T02:10:45.061Z,16.23
2023-02-11T02:13:15.535Z,16.10
2023-02-11T02:15:51.150Z,16.90
2023-02-11T02:18:42.041Z,15.97
2023-02-11T02:21:53.182Z,17.07
2023-02-11T02:25:01.041Z,17.53
2023-02-11T02:27:42.889Z,17.20
2023-02-11T02:30:56.752Z,16.80
2023-02-11T02:33:54.595Z,16.63
2023-02-11T02:36:33.372Z,17.53
2023-02-11T02:39:08.711Z,17.93
2023-02-11T02:41:40.503Z,17.03
2023-02-11T02:44:09.617Z,17.03
2023-02-11T02:46:38.489Z,17.60
2023-02-11T02:49:15.249Z,17.53
2023-02-11T02:52:23.084Z,18.00
2023-02-11T02:55:23.230Z,17.33
2023-02-11T02:58:19.719Z,17.37
2023-02-11T03:01:04.665Z,17.10
2023-02-11T03:03:45.191Z,17.17
2023-02-11T03:06:25.379Z,17.17
2023-02-11T03:09:02.161Z,17.70
2023-02-11T03:11:30.793Z,17.30
2023-02-11T03:14:04.329Z,17.57
2023-02-11T03:16:39.058Z,16.93
2023-02-11T03:19:14.642Z,17.43
2023-02-11T03:21:46.069Z,17.67
2023-02-11T03:24:21.470Z,18.10
2023-02-11T03:26:54.686Z,18.33
2023-02-11T03:29:36.295Z,18.07
2023-02-11T03:32:16.469Z,18.43
2023-02-11T03:34:50.948Z,19.17
2023-02-11T03:37:28.425Z,18.20
2023-02-11T03:40:09.326Z,17.73
2023-02-11T03:42:44.745Z,17.73
2023-02-11T03:45:17.696Z,18.93
2023-02-11T03:47:51.938Z,18.13
2023-02-11T03:50:23.109Z,18.23
2023-02-11T03:52:55.176Z,18.03
2023-02-11T03:55:27.430Z,19.07
2023-02-11T03:57:55.573Z,18.60
2023-02-11T04:00:32.181Z,18.30
2023-02-11T04:03:00.344Z,18.97
2023-02-11T04:05:28.480Z,19.00
2023-02-11T04:07:57.968Z,18.83
2023-02-11T04:10:26.518Z,18.57
2023-02-11T04:12:54.881Z,18.10
2023-02-11T04:15:23.049Z,19.07
2023-02-11T04:17:51.476Z,19.10
2023-02-11T04:20:20.192Z,19.00
2023-02-11T04:22:48.387Z,16.97
2023-02-11T04:25:18.099Z,18.40
2023-02-11T04:27:46.208Z,17.73
2023-02-11T04:30:15.101Z,18.53
2023-02-11T04:32:44.564Z,16.97
2023-02-11T04:35:12.733Z,18.20
2023-02-11T04:37:40.916Z,17.43
2023-02-11T04:40:10.753Z,19.07
2023-02-11T04:42:40.258Z,18.87
2023-02-11T04:45:09.693Z,18.33
2023-02-11T04:47:38.041Z,18.17
2023-02-11T04:50:07.112Z,18.37
2023-02-11T04:52:35.413Z,18.83
2023-02-11T04:55:03.588Z,18.90
2023-02-11T04:57:31.782Z,18.10
2023-02-11T05:00:01.289Z,18.20
2023-02-11T05:02:29.464Z,17.90
2023-02-11T05:04:57.637Z,19.20
2023-02-11T05:07:25.873Z,18.43
2023-02-11T05:09:54.113Z,18.33
2023-02-11T05:12:22.281Z,18.67
2023-02-11T05:14:50.414Z,19.40
2023-02-11T05:17:19.906Z,18.17
2023-02-11T05:19:47.984Z,19.70
2023-02-11T05:22:16.098Z,18.97
2023-02-11T05:24:44.204Z,18.57
2023-02-11T05:27:12.320Z,18.50
2023-02-11T05:29:40.460Z,19.23
2023-02-11T05:32:09.042Z,19.37
2023-02-11T05:34:38.591Z,21.40
2023-02-11T05:37:07.416Z,19.73
2023-02-11T05:39:35.641Z,20.07
2023-02-11T05:42:03.952Z,19.77
2023-02-11T05:44:32.194Z,18.57
2023-02-11T05:47:00.340Z,19.43
2023-02-11T05:49:28.427Z,20.67
2023-02-11T05:51:57.954Z,20.40
2023-02-11T05:54:26.212Z,21.07
2023-02-11T05:56:54.467Z,20.67
2023-02-11T05:59:22.645Z,19.47
2023-02-11T06:01:50.749Z,20.13
2023-02-11T06:04:18.863Z,21.30
2023-02-11T06:06:47.023Z,19.37
2023-02-11T06:09:16.488Z,19.87
2023-02-11T06:11:44.614Z,20.63
2023-02-11T06:14:12.718Z,20.23
2023-02-11T06:16:40.984Z,21.93
2023-02-11T06:19:09.096Z,21.17
2023-02-11T06:21:43.904Z,21.10
2023-02-11T06:24:13.217Z,20.60
2023-02-11T06:26:42.881Z,21.17
2023-02-11T06:29:11.593Z,22.30
2023-02-11T06:31:39.972Z,22.27
2023-02-11T06:34:08.434Z,21.53
2023-02-11T06:36:37.580Z,22.93
2023-02-11T06:39:06.317Z,22.37
2023-02-11T06:41:34.644Z,21.90
2023-02-11T06:44:04.382Z,21.37
2023-02-11T06:46:32.676Z,20.77
2023-02-11T06:49:00.863Z,21.93
2023-02-11T06:51:29.342Z,21.63
2023-02-11T06:53:57.551Z,21.57
2023-02-11T06:56:27.384Z,20.70
2023-02-11T06:58:56.600Z,23.20
2023-02-11T07:01:27.860Z,21.47
2023-02-11T07:03:56.084Z,22.00
2023-02-11T07:06:28.130Z,22.37
2023-02-11T07:08:57.378Z,21.67
2023-02-11T07:11:29.271Z,24.77
2023-02-11T07:14:02.054Z,22.83
2023-02-11T07:16:32.274Z,22.23
2023-02-11T07:19:00.408Z,21.47
2023-02-11T07:21:28.722Z,21.93
2023-02-11T07:23:56.870Z,22.20
2023-02-11T07:26:27.054Z,20.93
2023-02-11T07:28:55.233Z,21.50
2023-02-11T07:31:27.112Z,22.17
2023-02-11T07:33:59.831Z,22.23
2023-02-11T07:36:30.141Z,21.00
2023-02-11T07:38:58.424Z,20.77
2023-02-11T07:41:28.838Z,23.33
2023-02-11T07:43:57.000Z,21.53
2023-02-11T07:46:28.053Z,23.17
2023-02-11T07:48:57.793Z,22.37
2023-02-11T07:51:28.734Z,21.77
2023-02-11T07:53:59.779Z,20.50
2023-02-11T07:56:30.248Z,21.40
2023-02-11T07:59:03.124Z,21.53
2023-02-11T08:01:32.294Z,22.97
2023-02-11T08:04:04.350Z,22.57
2023-02-11T08:06:35.316Z,21.43
2023-02-11T08:09:08.858Z,21.73
2023-02-11T08:11:37.959Z,20.93
2023-02-11T08:14:06.328Z,21.43
2023-02-11T08:16:37.017Z,21.20
2023-02-11T08:19:13.603Z,21.43
2023-02-11T08:21:43.036Z,21.90
2023-02-11T08:24:11.920Z,21.97
2023-02-11T08:26:40.309Z,21.10
2023-02-11T08:29:11.964Z,21.73
2023-02-11T08:31:44.640Z,21.73
2023-02-11T08:34:18.964Z,21.43
2023-02-11T08:36:49.043Z,21.57
2023-02-11T08:39:20.774Z,21.50
2023-02-11T08:41:51.358Z,21.33
2023-02-11T08:44:21.716Z,20.90
2023-02-11T08:46:51.210Z,22.23
2023-02-11T08:49:21.149Z,21.03
2023-02-11T08:51:51.142Z,21.63
2023-02-11T08:54:19.467Z,21.13
2023-02-11T08:56:52.472Z,21.07
2023-02-11T08:59:20.512Z,21.17
2023-02-11T09:01:48.734Z,21.60
2023-02-11T09:04:20.113Z,20.30
2023-02-11T09:06:48.324Z,22.00
2023-02-11T09:09:17.444Z,21.30
2023-02-11T09:11:46.803Z,21.47
2023-02-11T09:14:20.278Z,20.80
2023-02-11T09:16:49.439Z,20.97
2023-02-11T09:19:18.848Z,21.80
2023-02-11T09:21:48.653Z,20.67
2023-02-11T09:24:16.939Z,20.40
2023-02-11T09:26:45.315Z,20.33
2023-02-11T09:29:13.974Z,20.07
2023-02-11T09:31:42.288Z,20.13
2023-02-11T09:34:11.821Z,21.00
2023-02-11T09:36:41.874Z,21.50
2023-02-11T09:39:16.831Z,20.40
2023-02-11T09:42:34.519Z,21.43
2023-02-11T09:45:04.058Z,20.47
2023-02-11T09:47:37.143Z,20.60
2023-02-11T09:50:11.589Z,20.53
2023-02-11T09:52:48.005Z,20.80
2023-02-11T09:55:26.429Z,20.20
2023-02-11T09:57:55.174Z,20.70
2023-02-11T10:00:29.635Z,19.90
2023-02-11T10:03:48.122Z,19.97
2023-02-11T10:06:37.655Z,19.27
2023-02-11T10:09:35.067Z,18.87
2023-02-11T10:12:31.435Z,20.20
2023-02-11T10:15:17.366Z,19.90
2023-02-11T10:18:04.043Z,18.83
2023-02-11T10:20:39.146Z,19.13
2023-02-11T10:23:16.674Z,19.43
2023-02-11T10:25:49.689Z,18.87
2023-02-11T10:28:22.429Z,19.63
2023-02-11T10:30:59.886Z,19.07
2023-02-11T10:33:32.583Z,18.77
2023-02-11T10:36:01.381Z,18.10
2023-02-11T10:38:29.739Z,18.67
2023-02-11T10:40:57.880Z,19.07
2023-02-11T10:43:31.540Z,18.77
2023-02-11T10:46:03.875Z,19.40
2023-02-11T10:48:49.354Z,23.60
2023-02-11T10:51:22.522Z,19.67
2023-02-11T10:54:13.808Z,18.80
2023-02-11T10:56:47.344Z,17.93
2023-02-11T10:59:28.258Z,18.93
2023-02-11T11:02:01.627Z,19.50
2023-02-11T11:04:41.393Z,18.63
2023-02-11T11:07:19.511Z,18.03
2023-02-11T11:09:52.690Z,17.93
2023-02-11T11:12:49.358Z,17.77
2023-02-11T11:15:23.905Z,18.23
2023-02-11T11:18:20.870Z,18.57
2023-02-11T11:21:00.735Z,18.83
2023-02-11T11:23:31.725Z,19.00
2023-02-11T11:26:06.157Z,18.53
2023-02-11T11:28:41.750Z,18.80
2023-02-11T11:31:19.909Z,18.83
2023-02-11T11:33:50.059Z,19.63
2023-02-11T11:36:24.318Z,19.97
2023-02-11T11:38:58.511Z,19.63
2023-02-11T11:41:30.578Z,18.67
2023-02-11T11:44:18.425Z,18.00
2023-02-11T11:46:56.840Z,19.00
2023-02-11T11:49:33.946Z,18.80
2023-02-11T11:52:19.188Z,18.53
2023-02-11T11:54:56.518Z,18.80
2023-02-11T11:57:30.565Z,17.60
2023-02-11T12:00:00.033Z,18.90
2023-02-11T12:03:36.581Z,18.40
2023-02-11T12:06:25.776Z,17.87
2023-02-11T12:09:10.678Z,17.03
2023-02-11T12:12:06.530Z,19.67
2023-02-11T12:14:50.436Z,19.00
2023-02-11T12:17:42.308Z,18.53
2023-02-11T12:20:33.058Z,18.63
2023-02-11T12:23:22.617Z,17.93
2023-02-11T12:26:05.655Z,18.77
2023-02-11T12:28:49.957Z,18.27
2023-02-11T12:31:40.444Z,18.47
2023-02-11T12:34:45.401Z,20.17
2023-02-11T12:37:30.379Z,18.80
2023-02-11T12:40:15.164Z,19.37
2023-02-11T12:43:17.411Z,18.43
2023-02-11T12:46:09.271Z,19.13
2023-02-11T12:49:04.326Z,18.53
2023-02-11T12:51:54.007Z,19.53
2023-02-11T12:54:31.337Z,19.70
2023-02-11T12:57:07.150Z,18.50
2023-02-11T12:59:48.552Z,19.47
2023-02-11T13:02:29.877Z,19.90
2023-02-11T13:05:06.230Z,18.63
2023-02-11T13:07:43.917Z,19.47
2023-02-11T13:10:29.721Z,18.80
2023-02-11T13:13:17.346Z,19.20
2023-02-11T13:15:52.564Z,19.37
2023-02-11T13:18:49.276Z,19.93
2023-02-11T13:21:52.948Z,19.23
2023-02-11T13:24:32.137Z,19.30
2023-02-11T13:27:16.144Z,18.87
2023-02-11T13:30:22.481Z,18.93
2023-02-11T13:33:32.687Z,19.20
2023-02-11T13:36:23.390Z,18.60
2023-02-11T13:39:05.806Z,19.97
2023-02-11T13:41:42.221Z,20.13
2023-02-11T13:44:27.274Z,19.43
2023-02-11T13:47:01.316Z,18.27
2023-02-11T13:49:36.651Z,18.83
2023-02-11T13:52:17.423Z,19.87
2023-02-11T13:54:52.685Z,19.40
2023-02-11T13:57:33.842Z,19.17
2023-02-11T14:00:23.722Z,18.03
2023-02-11T14:03:42.161Z,19.50
2023-02-11T14:06:38.431Z,18.53
2023-02-11T14:09:42.073Z,18.43
2023-02-11T14:12:35.745Z,18.50
2023-02-11T14:17:57.260Z,18.33
2023-02-11T14:20:44.504Z,19.47
2023-02-11T14:23:28.387Z,18.30
2023-02-11T14:26:23.052Z,18.43
2023-02-11T14:29:01.136Z,17.63
2023-02-11T14:31:39.802Z,18.40
2023-02-11T14:34:44.878Z,18.03
2023-02-11T14:37:32.311Z,18.67
2023-02-11T14:40:16.380Z,18.60
2023-02-11T14:42:45.003Z,18.77
2023-02-11T14:45:20.881Z,18.40
2023-02-11T14:48:00.127Z,17.53
2023-02-11T14:50:39.795Z,18.10
2023-02-11T14:53:16.305Z,18.17
2023-02-11T14:55:50.788Z,18.07
2023-02-11T14:58:21.993Z,17.37
2023-02-11T15:00:57.638Z,17.17
2023-02-11T15:03:33.146Z,17.80
2023-02-11T15:06:07.798Z,17.37
2023-02-11T15:08:43.197Z,17.17
2023-02-11T15:11:16.633Z,16.87
2023-02-11T15:13:47.923Z,17.47
2023-02-11T15:16:21.648Z,16.43
2023-02-11T15:18:53.722Z,16.83
2023-02-11T15:21:26.860Z,16.50
2023-02-11T15:24:01.219Z,16.67
2023-02-11T15:26:30.726Z,17.07
2023-02-11T15:28:58.904Z,16.83
2023-02-11T15:31:29.843Z,16.67
2023-02-11T15:34:09.417Z,16.33
2023-02-11T15:36:39.686Z,15.83
2023-02-11T15:39:19.412Z,16.97
2023-02-11T15:41:47.582Z,15.83
2023-02-11T15:44:30.666Z,15.97
2023-02-11T15:46:59.661Z,15.53
2023-02-11T15:49:28.396Z,15.57
2023-02-11T15:51:59.046Z,16.13
2023-02-11T15:54:32.035Z,15.07
2023-02-11T15:57:05.543Z,15.20
2023-02-11T15:59:39.088Z,15.30
2023-02-11T16:02:15.632Z,15.67
2023-02-11T16:04:52.192Z,14.43
2023-02-11T16:07:45.375Z,14.50
2023-02-11T16:10:25.556Z,14.70
2023-02-11T16:13:16.753Z,13.97
2023-02-11T16:15:52.397Z,13.27
2023-02-11T16:19:03.368Z,13.73
2023-02-11T16:21:38.885Z,13.73
2023-02-11T16:24:21.313Z,13.77
2023-02-11T16:26:54.311Z,13.70
2023-02-11T16:29:28.260Z,13.30
2023-02-11T16:32:09.493Z,14.07
2023-02-11T16:34:38.120Z,13.23
2023-02-11T16:37:07.326Z,13.47
2023-02-11T16:39:37.450Z,13.07
2023-02-11T16:42:07.596Z,13.17
2023-02-11T16:44:36.401Z,14.10
2023-02-11T16:47:08.443Z,12.97
2023-02-11T16:49:41.703Z,13.53
2023-02-11T16:52:17.070Z,13.77
2023-02-11T16:54:46.624Z,14.20
2023-02-11T16:57:17.539Z,13.23
2023-02-11T16:59:46.484Z,13.27
2023-02-11T17:02:21.658Z,13.60
2023-02-11T17:04:51.616Z,12.57
2023-02-11T17:07:19.754Z,12.90
2023-02-11T17:09:49.448Z,13.07
2023-02-11T17:12:17.552Z,12.97
2023-02-11T17:14:45.761Z,13.33
2023-02-11T17:17:14.796Z,13.83
2023-02-11T17:19:42.944Z,12.17
2023-02-11T17:22:12.598Z,12.27
2023-02-11T17:24:40.826Z,13.10
2023-02-11T17:27:11.918Z,14.10
2023-02-11T17:29:40.093Z,12.57
2023-02-11T17:32:08.255Z,13.17
2023-02-11T17:34:36.446Z,13.40
2023-02-11T17:37:09.052Z,13.83
2023-02-11T17:39:37.395Z,13.13
2023-02-11T17:42:06.936Z,12.63
2023-02-11T17:44:37.264Z,13.50
2023-02-11T17:47:05.540Z,14.50
2023-02-11T17:49:33.704Z,13.73
2023-02-11T17:52:01.921Z,15.27
2023-02-11T17:54:30.068Z,15.17
2023-02-11T17:56:58.688Z,14.03
2023-02-11T17:59:31.578Z,15.30
2023-02-11T18:02:01.088Z,15.07
2023-02-11T18:04:29.322Z,15.60
2023-02-11T18:06:58.517Z,15.33
2023-02-11T18:09:27.370Z,16.93
2023-02-11T18:11:55.563Z,16.27
2023-02-11T18:14:24.117Z,16.97
2023-02-11T18:16:53.020Z,18.73
2023-02-11T18:19:22.560Z,18.10
2023-02-11T18:21:50.978Z,18.17
2023-02-11T18:24:19.620Z,17.43
2023-02-11T18:26:47.754Z,18.53
2023-02-11T18:29:17.125Z,18.30
2023-02-11T18:31:45.321Z,19.27
2023-02-11T18:34:14.215Z,19.30
2023-02-11T18:36:43.772Z,19.40
2023-02-11T18:39:11.829Z,19.33
2023-02-11T18:41:42.175Z,19.00
2023-02-11T18:44:11.847Z,19.33
2023-02-11T18:46:39.981Z,21.27
2023-02-11T18:49:09.814Z,20.33
2023-02-11T18:51:37.950Z,21.13
2023-02-11T18:54:07.464Z,21.60
2023-02-11T18:56:35.669Z,21.97
2023-02-11T18:59:03.866Z,22.53
2023-02-11T19:01:34.209Z,22.77
2023-02-11T19:04:05.278Z,22.70
2023-02-11T19:06:36.812Z,22.97
2023-02-11T19:09:11.138Z,23.37
2023-02-11T19:11:55.360Z,22.47
2023-02-11T19:14:26.102Z,23.40
2023-02-11T19:16:58.405Z,22.57
2023-02-11T19:19:29.811Z,23.43
2023-02-11T19:22:00.223Z,22.63
2023-02-11T19:24:30.785Z,22.77
2023-02-11T19:27:01.728Z,23.47
2023-02-11T19:29:33.350Z,22.87
2023-02-11T19:32:01.991Z,25.17
2023-02-11T19:34:30.229Z,25.67
2023-02-11T19:36:59.595Z,24.97
2023-02-11T19:39:29.418Z,25.27
2023-02-11T19:41:57.566Z,24.47
2023-02-11T19:44:25.770Z,24.80
2023-02-11T19:46:54.724Z,26.07
2023-02-11T19:49:25.820Z,24.33
2023-02-11T19:51:57.336Z,24.83
2023-02-11T19:54:27.333Z,25.00
2023-02-11T19:56:57.337Z,24.57
2023-02-11T19:59:25.840Z,25.83
2023-02-11T20:01:54.216Z,24.90
2023-02-11T20:04:24.580Z,24.53
2023-02-11T20:06:52.739Z,25.33
2023-02-11T20:09:21.688Z,26.27
2023-02-11T20:11:50.366Z,25.67
2023-02-11T20:14:19.874Z,25.87
2023-02-11T20:16:49.835Z,26.13
2023-02-11T20:19:21.167Z,25.07
2023-02-11T20:21:52.402Z,26.97
2023-02-11T20:24:21.562Z,25.57
2023-02-11T20:26:55.157Z,26.30
2023-02-11T20:29:25.804Z,25.70
2023-02-11T20:31:54.803Z,25.27
2023-02-11T20:34:23.320Z,26.07
2023-02-11T20:36:52.727Z,26.17
2023-02-11T20:39:22.789Z,25.83
2023-02-11T20:41:52.383Z,26.10
2023-02-11T20:44:21.692Z,26.10
2023-02-11T20:46:53.911Z,26.53
2023-02-11T20:49:25.316Z,27.00
2023-02-11T20:51:53.819Z,26.77
2023-02-11T20:54:23.555Z,26.53
2023-02-11T20:56:53.821Z,26.33
2023-02-11T20:59:23.058Z,26.43
2023-02-11T21:01:56.339Z,26.27
2023-02-11T21:04:26.857Z,26.80
2023-02-11T21:06:58.595Z,26.60
2023-02-11T21:09:32.348Z,26.40
2023-02-11T21:12:01.781Z,26.47
2023-02-11T21:14:31.075Z,26.23
2023-02-11T21:17:00.681Z,25.67
2023-02-11T21:19:28.886Z,26.07
2023-02-11T21:22:00.456Z,27.17
2023-02-11T21:24:30.726Z,25.80
2023-02-11T21:26:59.236Z,26.33
2023-02-11T21:29:27.348Z,25.07
2023-02-11T21:31:55.587Z,26.63
2023-02-11T21:34:25.228Z,25.73
2023-02-11T21:36:53.416Z,26.03
2023-02-11T21:39:21.650Z,26.07
2023-02-11T21:41:49.963Z,27.00
2023-02-11T21:44:18.057Z,27.00
2023-02-11T21:46:46.232Z,26.47
2023-02-11T21:49:14.410Z,26.37
2023-02-11T21:51:43.797Z,27.93
2023-02-11T21:54:12.791Z,26.27
2023-02-11T21:56:40.841Z,26.10
2023-02-11T21:59:08.897Z,27.07
2023-02-11T22:01:36.998Z,27.20
2023-02-11T22:04:05.956Z,26.53
2023-02-11T22:06:35.933Z,26.03
2023-02-11T22:09:07.796Z,26.20
2023-02-11T22:11:36.548Z,26.13
2023-02-11T22:14:06.096Z,25.40
2023-02-11T22:16:34.425Z,26.27
2023-02-11T22:19:03.332Z,27.73
2023-02-11T22:21:31.791Z,26.80
2023-02-11T22:23:59.980Z,24.77
2023-02-11T22:26:29.669Z,27.57
2023-02-11T22:28:58.199Z,26.93
2023-02-11T22:31:30.455Z,26.27
2023-02-11T22:33:59.884Z,27.67
2023-02-11T22:36:30.290Z,26.93
2023-02-11T22:39:02.651Z,26.60
2023-02-11T22:41:32.489Z,26.67
2023-02-11T22:44:00.651Z,27.23
2023-02-11T22:46:28.834Z,27.63
2023-02-11T22:48:57.137Z,27.50
2023-02-11T22:51:28.046Z,27.50
2023-02-11T22:53:58.823Z,26.43
2023-02-11T22:56:29.447Z,27.57
2023-02-11T22:59:01.581Z,28.90
2023-02-11T23:01:31.946Z,27.47
2023-02-11T23:04:03.323Z,27.23
2023-02-11T23:06:31.881Z,27.43
2023-02-11T23:09:00.333Z,27.13
2023-02-11T23:11:31.910Z,26.30
2023-02-11T23:14:02.830Z,27.73
2023-02-11T23:16:34.305Z,25.97
2023-02-11T23:19:04.488Z,26.97
2023-02-11T23:21:36.471Z,26.23
2023-02-11T23:24:08.016Z,27.57
2023-02-11T23:26:39.034Z,26.40
2023-02-11T23:29:09.069Z,26.10
2023-02-11T23:31:40.883Z,25.87
2023-02-11T23:34:09.927Z,27.67
2023-02-11T23:36:38.900Z,27.10
2023-02-11T23:39:07.309Z,26.07
2023-02-11T23:41:35.553Z,25.10
2023-02-11T23:44:03.759Z,27.03
2023-02-11T23:46:33.303Z,25.13
2023-02-11T23:49:01.650Z,25.03
2023-02-11T23:51:29.878Z,26.53
2023-02-11T23:53:58.078Z,25.20
2023-02-11T23:56:28.895Z,25.73
2023-02-11T23:58:59.367Z,25.23
